Hall, MT (59837)

11:13 PM MDT on September 30, 2016 (GMT -0600)
Gold Creek | | Change Station

Elev 4997 ft 46.52 °N, 112.99 °W | Updated 14 minutes ago

Clear
Clear
55.4 °F
Feels Like 55.4 °F
N
1.0
Wind Variable Wind from SSW
Gusts 2.0 mph

Today
High -- | Low -- °F
--% Chance of Precip.
Yesterday
High -- | Low -- °F
Precip. -- in
Pressure 30.01 in
Visibility 10.0 miles
Clouds Clear
Dew Point 38 °F
Humidity 53%
Rainfall 0.00 in
Snow Depth Not available.
7:31 AM 7:13 PM
New Moon, 0% visible
METAR KBTM 010453Z AUTO 22003KT 10SM CLR 09/06 A3009 RMK AO2 SLP160 T00940056
Pressure 30.01 in
Visibility 10.0 miles
Clouds Clear
Dew Point 38 °F
Humidity 53%
Rainfall 0.00 in
Snow Depth Not available.
7:31 AM 7:13 PM
New Moon, 0% visible
METAR KBTM 010453Z AUTO 22003KT 10SM CLR 09/06 A3009 RMK AO2 SLP160 T00940056

10-Day Weather Forecast

Almanac

Astronomy

Sep. 30, 2016 Rise Set
Actual Time
Civil Twilight
Nautical Twilight
Astronomical Twilight
Moon
Length of Visible Light
Length of Day
Tomorrow will be .
, % of the Moon is Illuminated

Today's Extremes

State Highs State Lows

Community

WunderPhotos

Upload Photos

1,942,894 photos uploaded!

WunderBlog® & News

Nearby

Air Quality

  Air Quality AQ Index Pollutant
Not available.

Snow Depth

Station Depth Elevation

Earthquake Activity

City Distance Mag. Time & Date
Minimum magnitude displayed is 2.5.

Coastal Water Temperatures

Place Temperature

Stations

Nearby Weather Stations

Station Location Temp. Windchill Dew Point Humidity Wind Precip. Elev Updated Type
                   

Watches & Warnings

There are currently no watches in effect.